createdAt,value
2022-09-02T00:00:49.838Z,100.00
2022-09-02T00:03:17.504Z,100.00
2022-09-02T00:05:44.956Z,100.00
2022-09-02T00:08:11.718Z,100.00
2022-09-02T00:10:40.700Z,100.00
2022-09-02T00:13:09.298Z,100.00
2022-09-02T00:15:35.849Z,100.00
2022-09-02T00:18:02.893Z,100.00
2022-09-02T00:20:30.657Z,100.00
2022-09-02T00:22:58.997Z,100.00
2022-09-02T00:25:25.418Z,100.00
2022-09-02T00:27:51.938Z,100.00
2022-09-02T00:30:18.540Z,100.00
2022-09-02T00:32:45.046Z,100.00
2022-09-02T00:35:11.509Z,100.00
2022-09-02T00:37:38.568Z,100.00
2022-09-02T00:40:07.185Z,100.00
2022-09-02T00:42:34.765Z,100.00
2022-09-02T00:45:02.496Z,100.00
2022-09-02T00:47:31.117Z,100.00
2022-09-02T00:49:59.542Z,100.00
2022-09-02T00:52:31.935Z,100.00
2022-09-02T00:55:21.717Z,100.00
2022-09-02T00:57:59.669Z,100.00
2022-09-02T01:00:34.771Z,100.00
2022-09-02T01:03:05.803Z,100.00
2022-09-02T01:05:43.678Z,100.00
2022-09-02T01:08:11.790Z,100.00
2022-09-02T01:10:39.607Z,100.00
2022-09-02T01:13:09.769Z,100.00
2022-09-02T01:15:39.747Z,100.00
2022-09-02T01:18:09.038Z,100.00
2022-09-02T01:20:35.791Z,100.00
2022-09-02T01:23:02.451Z,100.00
2022-09-02T01:25:32.358Z,100.00
2022-09-02T01:28:05.859Z,100.00
2022-09-02T01:30:33.649Z,100.00
2022-09-02T01:33:00.171Z,100.00
2022-09-02T01:35:27.698Z,100.00
2022-09-02T01:37:56.804Z,100.00
2022-09-02T01:40:26.003Z,100.00
2022-09-02T01:43:02.588Z,100.00
2022-09-02T01:45:30.113Z,100.00
2022-09-02T01:47:56.663Z,100.00
2022-09-02T01:50:23.770Z,100.00
2022-09-02T01:52:50.405Z,100.00
2022-09-02T01:55:17.132Z,100.00
2022-09-02T01:57:43.697Z,100.00
2022-09-02T02:00:11.957Z,100.00
2022-09-02T02:02:38.839Z,100.00
2022-09-02T02:05:05.573Z,100.00
2022-09-02T02:07:32.046Z,100.00
2022-09-02T02:09:58.676Z,100.00
2022-09-02T02:12:25.544Z,100.00
2022-09-02T02:14:52.031Z,100.00
2022-09-02T02:17:21.508Z,100.00
2022-09-02T02:19:48.012Z,100.00
2022-09-02T02:22:14.636Z,100.00
2022-09-02T02:24:41.409Z,100.00
2022-09-02T02:27:07.936Z,100.00
2022-09-02T02:29:34.441Z,100.00
2022-09-02T02:32:01.011Z,100.00
2022-09-02T02:34:27.492Z,100.00
2022-09-02T02:36:53.951Z,100.00
2022-09-02T02:39:20.750Z,100.00
2022-09-02T02:41:47.469Z,100.00
2022-09-02T02:44:14.005Z,100.00
2022-09-02T02:46:40.570Z,100.00
2022-09-02T02:49:07.558Z,100.00
2022-09-02T02:51:34.798Z,100.00
2022-09-02T02:54:02.130Z,100.00
2022-09-02T02:56:30.403Z,100.00
2022-09-02T02:58:59.828Z,100.00
2022-09-02T03:01:26.342Z,100.00
2022-09-02T03:03:54.217Z,100.00
2022-09-02T03:06:21.960Z,100.00
2022-09-02T03:08:53.517Z,100.00
2022-09-02T03:11:22.450Z,100.00
2022-09-02T03:13:50.508Z,100.00
2022-09-02T03:16:19.540Z,100.00
2022-09-02T03:18:47.627Z,100.00
2022-09-02T03:21:16.049Z,100.00
2022-09-02T03:23:43.870Z,100.00
2022-09-02T03:26:18.846Z,100.00
2022-09-02T03:28:47.493Z,100.00
2022-09-02T03:31:16.667Z,100.00
2022-09-02T03:33:43.355Z,100.00
2022-09-02T03:36:29.539Z,100.00
2022-09-02T03:38:57.067Z,100.00
2022-09-02T03:41:23.991Z,100.00
2022-09-02T03:43:51.224Z,100.00
2022-09-02T03:46:18.668Z,100.00
2022-09-02T03:48:45.289Z,100.00
2022-09-02T03:51:12.198Z,100.00
2022-09-02T03:53:39.194Z,100.00
2022-09-02T03:56:08.587Z,100.00
2022-09-02T03:58:36.316Z,100.00
2022-09-02T04:01:04.010Z,100.00
2022-09-02T04:03:30.686Z,100.00
2022-09-02T04:05:57.555Z,100.00
2022-09-02T04:08:24.979Z,100.00
2022-09-02T04:10:51.848Z,100.00
2022-09-02T04:13:19.323Z,100.00
2022-09-02T04:15:48.940Z,100.00
2022-09-02T04:18:17.394Z,100.00
2022-09-02T04:20:44.395Z,100.00
2022-09-02T04:23:11.468Z,100.00
2022-09-02T04:25:43.349Z,100.00
2022-09-02T04:28:10.256Z,100.00
2022-09-02T04:30:41.234Z,100.00
2022-09-02T04:33:08.007Z,100.00
2022-09-02T04:35:35.967Z,100.00
2022-09-02T04:38:03.019Z,100.00
2022-09-02T04:40:29.783Z,100.00
2022-09-02T04:42:56.323Z,100.00
2022-09-02T04:45:26.587Z,100.00
2022-09-02T04:47:55.674Z,100.00
2022-09-02T04:50:22.140Z,100.00
2022-09-02T04:52:48.624Z,100.00
2022-09-02T04:55:15.096Z,100.00
2022-09-02T04:57:42.414Z,100.00
2022-09-02T05:00:09.947Z,100.00
2022-09-02T05:02:36.522Z,100.00
2022-09-02T05:05:03.097Z,100.00
2022-09-02T05:07:30.944Z,100.00
2022-09-02T05:10:00.992Z,100.00
2022-09-02T05:12:28.162Z,100.00
2022-09-02T05:14:57.147Z,100.00
2022-09-02T05:17:23.944Z,100.00
2022-09-02T05:19:50.470Z,100.00
2022-09-02T05:22:17.639Z,100.00
2022-09-02T05:24:44.733Z,100.00
2022-09-02T05:27:11.375Z,100.00
2022-09-02T05:29:38.645Z,100.00
2022-09-02T05:32:08.044Z,100.00
2022-09-02T05:34:36.024Z,100.00
2022-09-02T05:37:03.503Z,100.00
2022-09-02T05:39:30.822Z,100.00
2022-09-02T05:41:58.140Z,100.00
2022-09-02T05:44:25.128Z,100.00
2022-09-02T05:46:52.009Z,100.00
2022-09-02T05:49:18.548Z,100.00
2022-09-02T05:51:57.188Z,100.00
2022-09-02T05:54:30.032Z,100.00
2022-09-02T05:56:59.528Z,100.00
2022-09-02T05:59:28.017Z,100.00
2022-09-02T06:01:55.442Z,100.00
2022-09-02T06:04:22.738Z,100.00
2022-09-02T06:06:50.564Z,100.00
2022-09-02T06:09:21.001Z,100.00
2022-09-02T06:11:49.357Z,100.00
2022-09-02T06:14:18.895Z,100.00
2022-09-02T06:16:46.767Z,100.00
2022-09-02T06:19:17.698Z,100.00
2022-09-02T06:21:46.988Z,100.00
2022-09-02T06:24:17.061Z,100.00
2022-09-02T06:26:43.861Z,100.00
2022-09-02T06:29:11.109Z,100.00
2022-09-02T06:31:41.548Z,100.00
2022-09-02T06:34:12.371Z,100.00
2022-09-02T06:36:39.644Z,100.00
2022-09-02T06:39:06.436Z,100.00
2022-09-02T06:41:34.467Z,100.00
2022-09-02T06:44:03.837Z,100.00
2022-09-02T06:46:40.677Z,100.00
2022-09-02T06:49:08.615Z,100.00
2022-09-02T06:51:41.817Z,100.00
2022-09-02T06:54:11.376Z,100.00
2022-09-02T06:56:43.923Z,100.00
2022-09-02T06:59:14.315Z,100.00
2022-09-02T07:01:41.103Z,100.00
2022-09-02T07:04:26.183Z,100.00
2022-09-02T07:06:55.144Z,100.00
2022-09-02T07:09:31.055Z,100.00
2022-09-02T07:12:03.571Z,100.00
2022-09-02T07:14:31.924Z,100.00
2022-09-02T07:17:00.083Z,100.00
2022-09-02T07:19:27.085Z,100.00
2022-09-02T07:21:54.120Z,100.00
2022-09-02T07:24:20.977Z,100.00
2022-09-02T07:26:47.551Z,100.00
2022-09-02T07:29:14.724Z,100.00
2022-09-02T07:31:43.577Z,100.00
2022-09-02T07:34:11.209Z,100.00
2022-09-02T07:36:38.194Z,100.00
2022-09-02T07:39:07.522Z,100.00
2022-09-02T07:41:35.024Z,100.00
2022-09-02T07:44:02.522Z,100.00
2022-09-02T07:46:31.473Z,100.00
2022-09-02T07:48:59.917Z,100.00
2022-09-02T07:51:27.551Z,100.00
2022-09-02T07:53:57.391Z,100.00
2022-09-02T07:56:23.891Z,100.00
2022-09-02T07:58:50.437Z,100.00
2022-09-02T08:01:22.599Z,100.00
2022-09-02T08:03:50.094Z,100.00
2022-09-02T08:06:16.937Z,100.00
2022-09-02T08:08:48.546Z,100.00
2022-09-02T08:11:15.102Z,100.00
2022-09-02T08:13:41.799Z,100.00
2022-09-02T08:16:08.450Z,100.00
2022-09-02T08:18:36.242Z,100.00
2022-09-02T08:21:02.932Z,100.00
2022-09-02T08:23:37.699Z,100.00
2022-09-02T08:26:05.755Z,100.00
2022-09-02T08:28:32.464Z,100.00
2022-09-02T08:30:59.244Z,100.00
2022-09-02T08:33:25.852Z,100.00
2022-09-02T08:35:52.338Z,100.00
2022-09-02T08:38:18.873Z,100.00
2022-09-02T08:40:45.714Z,100.00
2022-09-02T08:43:40.004Z,100.00
2022-09-02T08:46:11.310Z,100.00
2022-09-02T08:48:50.011Z,100.00
2022-09-02T08:51:37.376Z,100.00
2022-09-02T08:54:13.394Z,100.00
2022-09-02T08:56:40.803Z,100.00
2022-09-02T08:59:09.443Z,100.00
2022-09-02T09:01:48.564Z,100.00
2022-09-02T09:04:36.420Z,100.00
2022-09-02T09:07:18.161Z,100.00
2022-09-02T09:10:10.832Z,100.00
2022-09-02T09:12:54.328Z,100.00
2022-09-02T09:15:38.459Z,100.00
2022-09-02T09:18:08.614Z,100.00
2022-09-02T09:20:41.104Z,100.00
2022-09-02T09:23:34.061Z,100.00
2022-09-02T09:26:20.852Z,100.00
2022-09-02T09:28:49.379Z,100.00
2022-09-02T09:31:18.762Z,100.00
2022-09-02T09:34:14.549Z,100.00
2022-09-02T09:36:40.973Z,100.00
2022-09-02T09:39:28.187Z,100.00
2022-09-02T09:42:13.430Z,100.00
2022-09-02T09:44:48.233Z,100.00
2022-09-02T09:47:20.736Z,100.00
2022-09-02T09:49:49.507Z,100.00
2022-09-02T09:52:27.502Z,100.00
2022-09-02T09:55:14.374Z,100.00
2022-09-02T09:57:44.817Z,100.00
2022-09-02T10:00:28.113Z,100.00
2022-09-02T10:02:58.400Z,100.00
2022-09-02T10:05:24.779Z,100.00
2022-09-02T10:08:02.820Z,100.00
2022-09-02T10:10:31.118Z,100.00
2022-09-02T10:13:20.316Z,100.00
2022-09-02T10:16:06.673Z,100.00
2022-09-02T10:18:54.595Z,100.00
2022-09-02T10:21:32.091Z,100.00
2022-09-02T10:24:27.009Z,100.00
2022-09-02T10:26:57.382Z,100.00
2022-09-02T10:29:54.349Z,100.00
2022-09-02T10:32:49.364Z,100.00
2022-09-02T10:35:25.047Z,100.00
2022-09-02T10:38:22.587Z,100.00
2022-09-02T10:41:04.961Z,100.00
2022-09-02T10:44:03.419Z,100.00
2022-09-02T10:46:43.948Z,100.00
2022-09-02T10:49:23.977Z,100.00
2022-09-02T10:52:06.678Z,100.00
2022-09-02T10:55:03.291Z,100.00
2022-09-02T10:57:34.183Z,100.00
2022-09-02T11:00:11.690Z,100.00
2022-09-02T11:02:45.473Z,100.00
2022-09-02T11:05:16.469Z,100.00
2022-09-02T11:07:49.440Z,100.00
2022-09-02T11:10:22.446Z,100.00
2022-09-02T11:13:03.026Z,100.00
2022-09-02T11:15:45.816Z,100.00
2022-09-02T11:18:50.026Z,100.00
2022-09-02T11:21:32.701Z,100.00
2022-09-02T11:24:11.951Z,100.00
2022-09-02T11:26:48.780Z,100.00
2022-09-02T11:29:22.414Z,100.00
2022-09-02T11:32:05.653Z,100.00
2022-09-02T11:34:35.061Z,100.00
2022-09-02T11:37:29.941Z,100.00
2022-09-02T11:40:33.812Z,100.00
2022-09-02T11:43:22.040Z,100.00
2022-09-02T11:46:07.423Z,100.00
2022-09-02T11:48:43.621Z,100.00
2022-09-02T11:51:22.139Z,100.00
2022-09-02T11:53:54.955Z,100.00
2022-09-02T11:56:31.012Z,100.00
2022-09-02T11:58:57.678Z,100.00
2022-09-02T12:01:52.945Z,100.00
2022-09-02T12:04:58.756Z,100.00
2022-09-02T12:07:13.327Z,100.00
2022-09-02T12:09:54.927Z,100.00
2022-09-02T12:12:36.695Z,100.00
2022-09-02T12:15:06.549Z,100.00
2022-09-02T12:17:40.014Z,98.72
2022-09-02T12:20:09.841Z,99.45
2022-09-02T12:22:38.953Z,100.00
2022-09-02T12:25:26.805Z,98.84
2022-09-02T12:28:10.823Z,99.64
2022-09-02T12:30:54.804Z,96.60
2022-09-02T12:33:33.057Z,98.41
2022-09-02T12:36:00.400Z,99.58
2022-09-02T12:38:30.123Z,98.98
2022-09-02T12:41:05.790Z,96.54
2022-09-02T12:44:01.029Z,96.01
2022-09-02T12:46:36.706Z,97.12
2022-09-02T12:49:22.192Z,97.81
2022-09-02T12:52:02.803Z,96.34
2022-09-02T12:54:32.253Z,95.71
2022-09-02T12:56:58.922Z,95.40
2022-09-02T12:59:32.016Z,98.05
2022-09-02T13:02:14.771Z,97.00
2022-09-02T13:04:56.206Z,97.93
2022-09-02T13:07:41.488Z,97.33
2022-09-02T13:10:26.895Z,95.03
2022-09-02T13:13:18.000Z,95.00
2022-09-02T13:16:02.844Z,95.27
2022-09-02T13:18:44.619Z,95.16
2022-09-02T13:21:30.156Z,95.84
2022-09-02T13:24:36.149Z,95.05
2022-09-02T13:27:17.056Z,96.94
2022-09-02T13:30:08.227Z,98.12
2022-09-02T13:32:35.321Z,95.42
2022-09-02T13:35:18.317Z,95.44
2022-09-02T13:37:56.557Z,95.34
2022-09-02T13:40:27.507Z,95.44
2022-09-02T13:42:57.193Z,94.62
2022-09-02T13:45:26.360Z,92.41
2022-09-02T13:47:59.572Z,92.83
2022-09-02T13:50:29.961Z,90.52
2022-09-02T13:55:57.475Z,91.49
2022-09-02T13:58:30.054Z,90.93
2022-09-02T14:01:02.217Z,91.34
2022-09-02T14:03:33.024Z,90.57
2022-09-02T14:06:01.106Z,92.88
2022-09-02T14:08:30.536Z,97.85
2022-09-02T14:10:58.377Z,100.00
2022-09-02T14:13:25.340Z,98.41
2022-09-02T14:15:51.900Z,96.29
2022-09-02T14:18:20.930Z,94.04
2022-09-02T14:20:58.598Z,97.21
2022-09-02T14:23:27.198Z,99.41
2022-09-02T14:25:56.340Z,98.19
2022-09-02T14:28:31.585Z,96.94
2022-09-02T14:31:07.158Z,95.97
2022-09-02T14:33:38.782Z,94.33
2022-09-02T14:36:11.923Z,93.38
2022-09-02T14:38:49.851Z,93.11
2022-09-02T14:41:26.822Z,93.35
2022-09-02T14:43:56.854Z,92.20
2022-09-02T14:46:29.922Z,91.81
2022-09-02T14:49:10.270Z,90.74
2022-09-02T14:51:44.048Z,93.20
2022-09-02T14:54:11.473Z,93.65
2022-09-02T14:56:51.466Z,94.00
2022-09-02T14:59:20.215Z,93.07
2022-09-02T15:01:51.393Z,92.72
2022-09-02T15:04:19.429Z,91.67
2022-09-02T15:06:46.391Z,92.60
2022-09-02T15:09:16.813Z,92.65
2022-09-02T15:11:51.318Z,93.20
2022-09-02T15:14:17.842Z,91.48
2022-09-02T15:16:44.396Z,91.22
2022-09-02T15:19:11.128Z,91.03
2022-09-02T15:21:37.600Z,91.84
2022-09-02T15:24:05.237Z,92.18
2022-09-02T15:26:31.745Z,92.63
2022-09-02T15:28:58.231Z,91.81
2022-09-02T15:31:24.848Z,92.83
2022-09-02T15:33:52.418Z,92.19
2022-09-02T15:36:19.193Z,92.51
2022-09-02T15:38:45.698Z,92.61
2022-09-02T15:41:19.457Z,91.32
2022-09-02T15:43:47.672Z,93.28
2022-09-02T15:46:31.211Z,92.31
2022-09-02T15:49:02.790Z,92.16
2022-09-02T15:51:29.634Z,92.75
2022-09-02T15:54:05.593Z,93.33
2022-09-02T15:56:34.358Z,93.10
2022-09-02T15:59:03.592Z,93.00
2022-09-02T16:01:32.825Z,93.65
2022-09-02T16:04:02.160Z,92.36
2022-09-02T16:06:29.255Z,92.28
2022-09-02T16:08:56.064Z,93.64
2022-09-02T16:11:23.112Z,94.25
2022-09-02T16:13:50.354Z,93.48
2022-09-02T16:16:17.789Z,94.13
2022-09-02T16:18:49.236Z,95.38
2022-09-02T16:21:15.696Z,94.57
2022-09-02T16:23:42.535Z,96.66
2022-09-02T16:26:21.166Z,94.08
2022-09-02T16:28:48.428Z,94.89
2022-09-02T16:31:17.422Z,94.92
2022-09-02T16:33:45.570Z,95.51
2022-09-02T16:36:12.070Z,96.50
2022-09-02T16:38:38.678Z,95.92
2022-09-02T16:41:05.288Z,97.28
2022-09-02T16:43:32.541Z,97.87
2022-09-02T16:46:03.134Z,98.70
2022-09-02T16:48:32.866Z,99.78
2022-09-02T16:51:04.325Z,100.00
2022-09-02T16:53:31.900Z,99.69
2022-09-02T16:55:58.796Z,100.00
2022-09-02T16:58:25.916Z,100.00
2022-09-02T17:00:52.673Z,100.00
2022-09-02T17:03:19.191Z,100.00
2022-09-02T17:05:47.918Z,100.00
2022-09-02T17:08:15.448Z,100.00
2022-09-02T17:10:42.040Z,100.00
2022-09-02T17:13:08.599Z,100.00
2022-09-02T17:15:35.060Z,100.00
2022-09-02T17:18:01.566Z,100.00
2022-09-02T17:20:28.192Z,100.00
2022-09-02T17:22:55.353Z,100.00
2022-09-02T17:25:22.232Z,100.00
2022-09-02T17:27:49.007Z,100.00
2022-09-02T17:30:15.752Z,100.00
2022-09-02T17:32:42.371Z,100.00
2022-09-02T17:35:11.317Z,100.00
2022-09-02T17:37:38.195Z,100.00
2022-09-02T17:40:08.119Z,100.00
2022-09-02T17:42:34.662Z,100.00
2022-09-02T17:45:01.264Z,100.00
2022-09-02T17:47:30.301Z,100.00
2022-09-02T17:49:56.799Z,100.00
2022-09-02T17:52:24.153Z,100.00
2022-09-02T17:54:52.414Z,100.00
2022-09-02T17:57:21.217Z,100.00
2022-09-02T18:00:01.255Z,100.00
2022-09-02T18:02:40.383Z,100.00
2022-09-02T18:05:21.976Z,100.00
2022-09-02T18:08:11.156Z,100.00
2022-09-02T18:10:40.650Z,100.00
2022-09-02T18:13:13.290Z,100.00
2022-09-02T18:15:59.568Z,100.00
2022-09-02T18:18:28.268Z,100.00
2022-09-02T18:21:17.276Z,100.00
2022-09-02T18:23:43.701Z,100.00
2022-09-02T18:26:33.217Z,100.00
2022-09-02T18:29:26.992Z,100.00
2022-09-02T18:32:16.997Z,100.00
2022-09-02T18:35:06.169Z,100.00
2022-09-02T18:37:52.721Z,100.00
2022-09-02T18:41:07.783Z,100.00
2022-09-02T18:44:27.975Z,100.00
2022-09-02T18:47:01.769Z,100.00
2022-09-02T18:49:33.083Z,100.00
2022-09-02T18:52:04.928Z,100.00
2022-09-02T18:54:45.216Z,100.00
2022-09-02T18:57:11.945Z,100.00
2022-09-02T18:59:42.717Z,100.00
2022-09-02T19:02:35.560Z,100.00
2022-09-02T19:05:07.066Z,100.00
2022-09-02T19:07:54.646Z,100.00
2022-09-02T19:10:22.868Z,100.00
2022-09-02T19:12:49.935Z,100.00
2022-09-02T19:15:17.338Z,100.00
2022-09-02T19:17:44.000Z,100.00
2022-09-02T19:20:10.922Z,100.00
2022-09-02T19:22:42.820Z,100.00
2022-09-02T19:25:21.265Z,100.00
2022-09-02T19:27:50.468Z,100.00
2022-09-02T19:30:20.223Z,100.00
2022-09-02T19:32:50.062Z,100.00
2022-09-02T19:35:22.977Z,100.00
2022-09-02T19:37:52.848Z,100.00
2022-09-02T19:40:23.963Z,100.00
2022-09-02T19:42:52.690Z,100.00
2022-09-02T19:45:19.969Z,100.00
2022-09-02T19:50:33.159Z,100.00
2022-09-02T19:52:59.721Z,100.00
2022-09-02T19:55:26.195Z,100.00
2022-09-02T19:57:53.227Z,100.00
2022-09-02T20:00:19.829Z,100.00
2022-09-02T20:02:46.271Z,100.00
2022-09-02T20:05:13.880Z,100.00
2022-09-02T20:07:40.784Z,100.00
2022-09-02T20:10:08.544Z,100.00
2022-09-02T20:12:36.361Z,100.00
2022-09-02T20:15:04.863Z,100.00
2022-09-02T20:17:31.905Z,100.00
2022-09-02T20:20:00.990Z,100.00
2022-09-02T20:22:31.075Z,100.00
2022-09-02T20:24:58.003Z,100.00
2022-09-02T20:28:01.166Z,100.00
2022-09-02T20:30:33.715Z,100.00
2022-09-02T20:33:19.208Z,100.00
2022-09-02T20:36:07.810Z,100.00
2022-09-02T20:39:03.914Z,100.00
2022-09-02T20:41:39.693Z,100.00
2022-09-02T20:44:30.772Z,100.00
2022-09-02T20:47:32.704Z,100.00
2022-09-02T20:50:14.027Z,100.00
2022-09-02T20:53:14.072Z,100.00
2022-09-02T20:56:09.062Z,100.00
2022-09-02T20:58:54.523Z,100.00
2022-09-02T21:01:31.175Z,100.00
2022-09-02T21:04:06.456Z,100.00
2022-09-02T21:06:44.429Z,100.00
2022-09-02T21:09:27.387Z,100.00
2022-09-02T21:12:10.392Z,100.00
2022-09-02T21:14:49.116Z,100.00
2022-09-02T21:17:41.274Z,100.00
2022-09-02T21:20:20.047Z,100.00
2022-09-02T21:22:55.314Z,100.00
2022-09-02T21:25:28.296Z,100.00
2022-09-02T21:28:17.196Z,100.00
2022-09-02T21:30:49.801Z,100.00
2022-09-02T21:33:17.715Z,100.00
2022-09-02T21:35:53.148Z,100.00
2022-09-02T21:38:39.306Z,100.00
2022-09-02T21:41:05.817Z,100.00
2022-09-02T21:43:58.532Z,100.00
2022-09-02T21:46:33.815Z,100.00
2022-09-02T21:49:31.260Z,100.00
2022-09-02T21:52:06.485Z,100.00
2022-09-02T21:54:43.794Z,100.00
2022-09-02T21:57:28.817Z,100.00
2022-09-02T22:00:01.339Z,100.00
2022-09-02T22:02:46.272Z,100.00
2022-09-02T22:05:32.340Z,100.00
2022-09-02T22:08:11.482Z,100.00
2022-09-02T22:10:49.688Z,100.00
2022-09-02T22:13:16.139Z,100.00
2022-09-02T22:16:17.946Z,100.00
2022-09-02T22:18:55.251Z,100.00
2022-09-02T22:21:38.034Z,100.00
2022-09-02T22:24:04.734Z,100.00
2022-09-02T22:26:38.674Z,100.00
2022-09-02T22:29:13.029Z,100.00
2022-09-02T22:31:42.998Z,100.00
2022-09-02T22:34:10.563Z,100.00
2022-09-02T22:36:48.927Z,100.00
2022-09-02T22:39:20.525Z,100.00
2022-09-02T22:42:04.010Z,100.00
2022-09-02T22:45:00.699Z,100.00
2022-09-02T22:47:50.373Z,100.00
2022-09-02T22:50:41.645Z,100.00
2022-09-02T22:53:08.138Z,100.00
2022-09-02T22:55:56.466Z,100.00
2022-09-02T22:58:33.225Z,100.00
2022-09-02T23:01:27.798Z,100.00
2022-09-02T23:04:25.629Z,100.00
2022-09-02T23:06:55.106Z,100.00
2022-09-02T23:09:21.596Z,100.00
2022-09-02T23:12:03.286Z,100.00
2022-09-02T23:14:51.596Z,100.00
2022-09-02T23:17:33.901Z,100.00
2022-09-02T23:20:22.127Z,100.00
2022-09-02T23:23:18.823Z,100.00
2022-09-02T23:26:00.127Z,100.00
2022-09-02T23:28:52.358Z,100.00
2022-09-02T23:31:37.134Z,100.00
2022-09-02T23:34:30.790Z,100.00
2022-09-02T23:37:21.032Z,100.00
2022-09-02T23:40:10.256Z,100.00
2022-09-02T23:42:37.850Z,100.00
2022-09-02T23:45:20.566Z,100.00
2022-09-02T23:48:09.400Z,100.00
2022-09-02T23:50:58.213Z,100.00
2022-09-02T23:53:33.788Z,100.00
2022-09-02T23:56:32.707Z,100.00
2022-09-02T23:59:36.332Z,100.00
